MSLPMZBZ

Guest
Details From MSLP - El Salvador Intl
To MZBZ - Philip S W Goldson Intl
Flight Number -
Tags generated
Created
Modified
Stats Distance 250 nm / 462 km
Max Altitude 29,600 ft / 9,022 m
Waypoints 5
Social Downloads 1
Likes 0
Share VATSIM

Download

Looking for another format? Having issues loading an existing format? Contact us
Advertisement - Login to hide

Notes

Basic altitude profile: - Ascent Rate: 2500ft/min - Ascent Speed: 250kts - Cruise Altitude: 35000ft - Cruise Speed: 420kts - Descent Rate: 1500ft/min - Descent Speed: 250kts Options: - Use NATs: yes - Use PACOTS: yes - Use low airways: yes - Use high airways: yes

Route

MSLP PENRU UB764 BAR B764 AVAKO MZBZ

ID Type Via Altitude Latitude Longitude Leg Dist Tot Dist Heading (true) Name
O MSLP APT - 0 ft / 0 m 13.44567˚ -89.05174˚ - 0 nm - El Salvador Intl
PENRU FIX - 29,600 ft / 9,022 m 15.19500˚ -88.73333˚ 106 nm 106 nm 10° / 10° -
BAR NDB UB764 (AWY-HI) 23,400 ft / 7,132 m 15.73667˚ -88.59500˚ 33 nm 140 nm 14° / 14° PUERTO BARRIOS NDB
AVAKO FIX B764 (AWY-LO) 6,000 ft / 1,829 m 17.12667˚ -88.38000˚ 84 nm 224 nm 8° / 8° -
O MZBZ APT - 0 ft / 0 m 17.53914˚ -88.30820˚ 25 nm 249 nm 9° / 9° Philip S W Goldson Intl

Altitude Profile

Advertisement - Login to hide

Weather


0- 5 10 15 20 25 30 35+ Temperature / ° C

Clouds and Precipitation
Forecast for 2017-12-11 18:00 UTC. Updated 14 minutes ago

Ground ~20,000 ft ~40,000 ft Winds

MSLP

Details ICAO MSLP (SAL)
Name El Salvador Intl
Region El Salvador
Timezone America/El_Salvador (UTC-6.0)
Stats Elevation 101 ft / 31 m (AMSL)
Location 13.445666° -89.051739°
Runways 2
Magnetic Variation 0.453° E

METAR

MSLP 111450Z 02017G30KT 350V050 CAVOK 26/11 Q1016

Decode

TAF

Not found

Departure Runways

ID Width Length Bearing (true) Bearing (mag) Surface Threshold Offset Overrun Length
07 148 ft / 45 m 10,507 ft / 3,202 m 69.86° 69.41° Asphalt 0 ft / 0 m 200 ft / 61 m
18 75 ft / 23 m 2,639 ft / 804 m 180.00° 179.55° Asphalt 0 ft / 0 m 120 ft / 37 m
25 148 ft / 45 m 10,507 ft / 3,202 m 249.87° 249.42° Asphalt 0 ft / 0 m 200 ft / 61 m
36 75 ft / 23 m 2,639 ft / 804 m 0.00° 359.55° Asphalt 0 ft / 0 m 120 ft / 37 m

MZBZ

Details ICAO MZBZ (BZE)
Name Philip S W Goldson Intl
Region Belize
Timezone America/Belize (UTC-6.0)
Stats Elevation 15 ft / 5 m (AMSL)
Location 17.539144° -88.308201°
Runways 1
Magnetic Variation 0.556° W

METAR

MZBZ 111500Z 30005KT 9999 FEW040 18/16 A3029 Q1025 NOSIG

Decode

TAF

Not found

Destination Runways

ID Width Length Bearing (true) Bearing (mag) Surface Threshold Offset Overrun Length
07 150 ft / 46 m 7,097 ft / 2,163 m 76.65° 77.21° Asphalt 0 ft / 0 m 200 ft / 61 m
25 150 ft / 46 m 7,097 ft / 2,163 m 256.66° 257.22° Asphalt 0 ft / 0 m 200 ft / 61 m

Popular Alternatives